Time;durP1;ratioP1;P1;durP2;ratioP2;P2;SDS_P1;SDS_P2;PMS_P1;PMS_P2;Temp;Humidity;BMP_temperature;BMP_pressure;BME280_temperature;BME280_humidity;BME280_pressure;Samples;Min_cycle;Max_cycle;Signal;HPM_P1;HPM_P2
2022/11/25 00:01:23;;;;;;;;;;;12.10;99.90;;;;;;7342056;19;110256;-73
2022/11/25 00:03:51;;;;;;;;;;;12.10;99.90;;;;;;7344011;19;108754;-73
2022/11/25 00:06:17;;;;;;;;;;;12.10;99.90;;;;;;7341364;19;109842;-74
2022/11/25 00:08:45;;;;;;;;;;;12.10;99.90;;;;;;7343184;19;110504;-73
2022/11/25 00:11:13;;;;;;;;;;;12.10;99.90;;;;;;7343408;19;108551;-74
2022/11/25 00:13:40;;;;;;;;;;;12.20;99.90;;;;;;7343009;19;109410;-72
2022/11/25 00:16:08;;;;;;;;;;;12.20;99.90;;;;;;7340520;19;111407;-72
2022/11/25 00:18:35;;;;;;;;;;;12.20;99.90;;;;;;7340546;19;108843;-73
2022/11/25 00:21:06;;;;;;;;;;;12.20;99.90;;;;;;7347968;19;109769;-72
2022/11/25 00:23:33;;;;;;;;;;;12.20;99.90;;;;;;7343878;19;109128;-73
2022/11/25 00:26:11;;;;;;;;;;;12.30;99.90;;;;;;7342571;19;110066;-73
2022/11/25 00:28:38;;;;;;;;;;;12.20;99.90;;;;;;7344245;19;110056;-73
2022/11/25 00:31:06;;;;;;;;;;;12.30;99.90;;;;;;7341993;19;108318;-73
2022/11/25 00:33:33;;;;;;;;;;;12.30;99.90;;;;;;7341507;19;108555;-73
2022/11/25 00:36:03;;;;;;;;;;;12.30;99.90;;;;;;7341523;19;110073;-73
2022/11/25 00:38:30;;;;;;;;;;;12.30;99.90;;;;;;7337652;19;108733;-73
2022/11/25 00:46:35;;;;;;;;;;;12.40;99.90;;;;;;7341378;19;109588;-72
2022/11/25 00:49:02;;;;;;;;;;;12.40;99.90;;;;;;7340881;19;110422;-72
2022/11/25 00:51:29;;;;;;;;;;;12.40;99.90;;;;;;7338519;19;108827;-72
2022/11/25 00:53:56;;;;;;;;;;;12.40;99.90;;;;;;7340359;19;110429;-72
2022/11/25 00:56:25;;;;;;;;;;;12.40;99.90;;;;;;7340807;19;110189;-74
2022/11/25 00:58:52;;;;;;;;;;;12.40;99.90;;;;;;7343328;19;108661;-73
2022/11/25 01:01:19;;;;;;;;;;;12.40;99.90;;;;;;7340302;19;112393;-72
2022/11/25 01:03:50;;;;;;;;;;;12.50;99.90;;;;;;7340367;19;110805;-73
2022/11/25 01:06:16;;;;;;;;;;;12.50;99.90;;;;;;7347904;19;108753;-73
2022/11/25 01:08:43;;;;;;;;;;;12.50;99.90;;;;;;7340921;19;109824;-73
2022/11/25 01:11:11;;;;;;;;;;;12.50;99.90;;;;;;7340581;19;108980;-74
2022/11/25 01:13:39;;;;;;;;;;;12.40;99.90;;;;;;7340202;19;109207;-73
2022/11/25 01:16:07;;;;;;;;;;;12.40;99.90;;;;;;7337622;19;109603;-73
2022/11/25 01:18:34;;;;;;;;;;;12.40;99.90;;;;;;7340040;19;109850;-74
2022/11/25 01:21:23;;;;;;;;;;;12.30;99.90;;;;;;7340761;19;112174;-73
2022/11/25 01:23:50;;;;;;;;;;;12.30;99.90;;;;;;7342477;19;109090;-73
2022/11/25 01:26:18;;;;;;;;;;;12.30;99.90;;;;;;7346011;19;110508;-73
2022/11/25 01:28:45;;;;;;;;;;;12.30;99.90;;;;;;7340274;19;110209;-74
2022/11/25 01:31:14;;;;;;;;;;;12.30;99.90;;;;;;7339737;19;111555;-73
2022/11/25 01:33:41;;;;;;;;;;;12.20;99.90;;;;;;7339449;19;109473;-75
2022/11/25 01:36:17;;;;;;;;;;;12.20;99.90;;;;;;7340731;19;113116;-73
2022/11/25 01:38:47;;;;;;;;;;;12.10;99.90;;;;;;7341187;19;109017;-73
2022/11/25 01:41:14;;;;;;;;;;;12.10;99.90;;;;;;7339655;19;110451;-73
2022/11/25 01:43:41;;;;;;;;;;;12.10;99.90;;;;;;7341571;19;112298;-73
2022/11/25 01:46:11;;;;;;;;;;;12.10;99.90;;;;;;7339966;19;109281;-73
2022/11/25 01:48:48;;;;;;;;;;;12.00;99.90;;;;;;7342795;19;109169;-73
2022/11/25 01:51:27;;;;;;;;;;;12.00;99.90;;;;;;7338140;19;108911;-77
2022/11/25 01:53:58;;;;;;;;;;;11.90;99.90;;;;;;7339888;19;109483;-76
2022/11/25 01:56:27;;;;;;;;;;;11.90;99.90;;;;;;7338017;19;110386;-77
2022/11/25 01:58:54;;;;;;;;;;;11.90;99.90;;;;;;7338916;19;108725;-80
2022/11/25 02:01:21;;;;;;;;;;;11.80;99.90;;;;;;7336829;19;109394;-77
2022/11/25 02:03:50;;;;;;;;;;;11.80;99.90;;;;;;7337162;19;109428;-78
2022/11/25 02:06:39;;;;;;;;;;;11.80;99.90;;;;;;7338575;19;108412;-79
2022/11/25 02:09:07;;;;;;;;;;;11.80;99.90;;;;;;7339318;19;108691;-78
2022/11/25 02:11:37;;;;;;;;;;;11.80;99.90;;;;;;7341587;19;109177;-79
2022/11/25 02:14:04;;;;;;;;;;;11.80;99.90;;;;;;7339038;19;111167;-79
2022/11/25 02:16:31;;;;;;;;;;;11.80;99.90;;;;;;7338961;19;111196;-79
2022/11/25 02:18:58;;;;;;;;;;;11.70;99.90;;;;;;7340910;19;108658;-79
2022/11/25 02:21:30;;;;;;;;;;;11.60;99.90;;;;;;7336748;19;108814;-77
2022/11/25 02:23:57;;;;;;;;;;;11.50;99.90;;;;;;7338263;19;109576;-75
2022/11/25 02:26:24;;;;;;;;;;;11.50;99.90;;;;;;7340336;19;108336;-74
2022/11/25 02:28:51;;;;;;;;;;;11.50;99.90;;;;;;7338897;19;110339;-75
2022/11/25 02:31:22;;;;;;;;;;;11.50;99.90;;;;;;7336425;19;109143;-73
2022/11/25 02:33:49;;;;;;;;;;;11.60;99.90;;;;;;7343646;19;108516;-73
2022/11/25 02:36:20;;;;;;;;;;;11.60;99.90;;;;;;7336745;19;110266;-73
2022/11/25 02:38:49;;;;;;;;;;;11.50;99.90;;;;;;7338846;19;108418;-74
2022/11/25 02:41:35;;;;;;;;;;;11.40;99.90;;;;;;7337695;19;109906;-73
2022/11/25 02:44:02;;;;;;;;;;;11.40;99.90;;;;;;7337825;19;111328;-74
2022/11/25 02:46:29;;;;;;;;;;;11.40;99.90;;;;;;7335039;19;110437;-74
2022/11/25 02:48:57;;;;;;;;;;;11.40;99.90;;;;;;7338221;19;109181;-74
2022/11/25 02:51:42;;;;;;;;;;;11.40;99.90;;;;;;7337847;19;110186;-73
2022/11/25 02:54:10;;;;;;;;;;;11.30;99.90;;;;;;7337713;19;109001;-73
2022/11/25 02:56:39;;;;;;;;;;;11.20;99.90;;;;;;7342329;19;113732;-73
2022/11/25 02:59:06;;;;;;;;;;;11.20;99.90;;;;;;7336274;19;109152;-74
2022/11/25 03:01:34;;;;;;;;;;;11.30;99.90;;;;;;7338460;19;109950;-75
2022/11/25 03:04:01;;;;;;;;;;;11.30;99.90;;;;;;7343687;19;110283;-73
2022/11/25 03:06:28;;;;;;;;;;;11.30;99.90;;;;;;7342350;19;109736;-73
2022/11/25 03:08:55;;;;;;;;;;;11.30;99.90;;;;;;7343094;19;109314;-73
2022/11/25 03:12:17;;;;;;;;;;;11.30;99.90;;;;;;7342396;19;110259;-73
2022/11/25 03:14:09;;;;;;;;;;;11.30;99.90;;;;;;7343575;19;108680;-73
2022/11/25 03:16:36;;;;;;;;;;;11.30;99.90;;;;;;7347969;19;111298;-73
2022/11/25 03:19:03;;;;;;;;;;;11.30;99.90;;;;;;7343478;19;108620;-73
2022/11/25 03:21:30;;;;;;;;;;;11.30;99.90;;;;;;7342960;19;109234;-73
2022/11/25 03:23:57;;;;;;;;;;;11.30;99.90;;;;;;7343713;19;110385;-75
2022/11/25 03:26:25;;;;;;;;;;;11.30;99.90;;;;;;7342041;19;108979;-73
2022/11/25 03:28:52;;;;;;;;;;;11.30;99.90;;;;;;7344960;19;108441;-73
2022/11/25 03:31:18;;;;;;;;;;;11.30;99.90;;;;;;7342016;19;110241;-74
2022/11/25 03:33:45;;;;;;;;;;;11.30;99.90;;;;;;7345802;19;108820;-73
2022/11/25 03:36:12;;;;;;;;;;;11.20;99.90;;;;;;7343725;19;109113;-73
2022/11/25 03:38:40;;;;;;;;;;;11.20;99.90;;;;;;7350281;19;111240;-75
2022/11/25 03:41:06;;;;;;;;;;;11.20;99.90;;;;;;7342385;19;108510;-74
2022/11/25 03:43:34;;;;;;;;;;;11.20;99.90;;;;;;7341178;19;109870;-73
2022/11/25 03:46:01;;;;;;;;;;;11.20;99.90;;;;;;7342410;19;108796;-74
2022/11/25 03:48:28;;;;;;;;;;;11.20;99.90;;;;;;7342241;19;109491;-73
2022/11/25 03:50:55;;;;;;;;;;;11.10;99.90;;;;;;7339177;19;110481;-73
2022/11/25 03:53:22;;;;;;;;;;;11.10;99.90;;;;;;7342324;19;108653;-73
2022/11/25 03:55:49;;;;;;;;;;;11.10;99.90;;;;;;7342851;19;109388;-73
2022/11/25 03:58:16;;;;;;;;;;;11.10;99.90;;;;;;7339818;19;111316;-73
2022/11/25 04:00:43;;;;;;;;;;;11.00;99.90;;;;;;7349624;19;108623;-72
2022/11/25 04:03:10;;;;;;;;;;;11.00;99.90;;;;;;7341390;19;110201;-73
2022/11/25 04:05:36;;;;;;;;;;;11.00;99.90;;;;;;7341234;19;108907;-73
2022/11/25 04:08:04;;;;;;;;;;;11.00;99.90;;;;;;7341912;19;108680;-74
2022/11/25 04:10:34;;;;;;;;;;;10.90;99.90;;;;;;7340082;19;110257;-73
2022/11/25 04:13:01;;;;;;;;;;;10.90;99.90;;;;;;7341448;19;108543;-73
2022/11/25 04:15:28;;;;;;;;;;;10.80;99.90;;;;;;7340579;19;108799;-73
2022/11/25 04:17:55;;;;;;;;;;;10.80;99.90;;;;;;7339474;19;108937;-73
2022/11/25 04:20:23;;;;;;;;;;;10.80;99.90;;;;;;7341223;19;108855;-74
2022/11/25 04:22:50;;;;;;;;;;;10.80;99.90;;;;;;7346622;19;109782;-73
2022/11/25 04:25:17;;;;;;;;;;;10.80;99.90;;;;;;7340846;19;109459;-73
2022/11/25 04:27:44;;;;;;;;;;;10.80;99.90;;;;;;7342222;19;108778;-73
2022/11/25 04:30:10;;;;;;;;;;;10.70;99.90;;;;;;7340607;19;109845;-73
2022/11/25 04:32:37;;;;;;;;;;;10.70;99.90;;;;;;7342558;19;108381;-73
2022/11/25 04:35:05;;;;;;;;;;;10.70;99.90;;;;;;7341593;19;109363;-73
2022/11/25 04:37:31;;;;;;;;;;;10.60;99.90;;;;;;7337980;19;110582;-74
2022/11/25 04:39:58;;;;;;;;;;;10.60;99.90;;;;;;7339961;19;108481;-73
2022/11/25 04:42:31;;;;;;;;;;;10.60;99.90;;;;;;7340339;19;109307;-73
2022/11/25 04:45:00;;;;;;;;;;;10.50;99.90;;;;;;7344601;19;109024;-73
2022/11/25 04:47:47;;;;;;;;;;;10.50;99.90;;;;;;7342662;19;111243;-73
2022/11/25 04:50:17;;;;;;;;;;;10.50;99.90;;;;;;7341894;19;109808;-73
2022/11/25 04:52:44;;;;;;;;;;;10.50;99.90;;;;;;7339600;19;108874;-73
2022/11/25 04:55:11;;;;;;;;;;;10.40;99.90;;;;;;7341013;19;109157;-73
2022/11/25 04:57:38;;;;;;;;;;;10.40;99.90;;;;;;7342017;19;112793;-73
2022/11/25 05:00:06;;;;;;;;;;;10.40;99.90;;;;;;7341028;19;108366;-74
2022/11/25 05:02:32;;;;;;;;;;;10.40;99.90;;;;;;7340334;19;108810;-73
2022/11/25 05:05:00;;;;;;;;;;;10.30;99.90;;;;;;7340530;19;109806;-73
2022/11/25 05:07:27;;;;;;;;;;;10.30;99.90;;;;;;7344271;19;108675;-73
2022/11/25 05:09:54;;;;;;;;;;;10.30;99.90;;;;;;7340170;19;110469;-73
2022/11/25 05:12:22;;;;;;;;;;;10.20;99.90;;;;;;7340276;19;108575;-73
2022/11/25 05:14:49;;;;;;;;;;;10.20;99.90;;;;;;7338630;19;108309;-73
2022/11/25 05:17:17;;;;;;;;;;;10.20;99.90;;;;;;7341099;19;109722;-73
2022/11/25 05:19:44;;;;;;;;;;;10.20;99.90;;;;;;7343122;19;108323;-74
2022/11/25 05:22:12;;;;;;;;;;;10.20;99.90;;;;;;7337962;19;109784;-73
2022/11/25 05:24:39;;;;;;;;;;;10.20;99.90;;;;;;7338319;19;109095;-73
2022/11/25 05:27:06;;;;;;;;;;;10.20;99.90;;;;;;7344972;19;108964;-73
2022/11/25 05:29:33;;;;;;;;;;;10.20;99.90;;;;;;7338749;19;111058;-73
2022/11/25 05:32:00;;;;;;;;;;;10.20;99.90;;;;;;7339118;19;109228;-74
2022/11/25 05:34:27;;;;;;;;;;;10.20;99.90;;;;;;7340365;19;116107;-74
2022/11/25 05:36:54;;;;;;;;;;;10.20;99.90;;;;;;7338626;19;109360;-73
2022/11/25 05:39:21;;;;;;;;;;;10.20;99.90;;;;;;7339572;19;108380;-73
2022/11/25 05:41:48;;;;;;;;;;;10.20;99.90;;;;;;7341073;19;109747;-73
2022/11/25 05:44:14;;;;;;;;;;;10.20;99.90;;;;;;7339696;19;110286;-73
2022/11/25 05:46:48;;;;;;;;;;;10.20;99.90;;;;;;7339669;19;108822;-73
2022/11/25 05:49:15;;;;;;;;;;;10.20;99.90;;;;;;7345332;19;110530;-73
2022/11/25 05:51:42;;;;;;;;;;;10.20;99.90;;;;;;7340306;19;109081;-73
2022/11/25 05:54:09;;;;;;;;;;;10.20;99.90;;;;;;7339986;19;109338;-73
2022/11/25 05:56:36;;;;;;;;;;;10.20;99.90;;;;;;7337694;19;109821;-73
2022/11/25 05:59:03;;;;;;;;;;;10.20;99.90;;;;;;7339678;19;108646;-73
2022/11/25 06:01:30;;;;;;;;;;;10.10;99.90;;;;;;7339156;19;109816;-73
2022/11/25 06:04:02;;;;;;;;;;;10.10;99.90;;;;;;7337219;19;110385;-73
2022/11/25 06:06:29;;;;;;;;;;;10.10;99.90;;;;;;7338862;19;108357;-73
2022/11/25 06:08:56;;;;;;;;;;;10.10;99.90;;;;;;7339164;19;109767;-73
2022/11/25 06:11:24;;;;;;;;;;;10.10;99.90;;;;;;7340493;19;109916;-73
2022/11/25 06:13:51;;;;;;;;;;;10.00;99.90;;;;;;7337762;19;108921;-73
2022/11/25 06:16:20;;;;;;;;;;;10.00;99.90;;;;;;7336229;19;111110;-73
2022/11/25 06:18:47;;;;;;;;;;;10.00;99.90;;;;;;7339300;19;108603;-73
2022/11/25 06:21:14;;;;;;;;;;;10.00;99.90;;;;;;7337642;19;109700;-73
2022/11/25 06:23:43;;;;;;;;;;;10.00;99.90;;;;;;7336487;19;108950;-73
2022/11/25 06:26:14;;;;;;;;;;;9.90;99.90;;;;;;7338375;19;108738;-73
2022/11/25 06:28:41;;;;;;;;;;;9.90;99.90;;;;;;7339045;19;109087;-74
2022/11/25 06:31:09;;;;;;;;;;;9.90;99.90;;;;;;7337545;19;109610;-73
2022/11/25 06:33:37;;;;;;;;;;;9.80;99.90;;;;;;7340813;19;109022;-73
2022/11/25 06:36:05;;;;;;;;;;;9.70;99.90;;;;;;7335049;19;110276;-73
2022/11/25 06:38:33;;;;;;;;;;;9.70;99.90;;;;;;7337580;19;114057;-73
2022/11/25 06:41:01;;;;;;;;;;;9.60;99.90;;;;;;7337092;19;109460;-73
2022/11/25 06:43:28;;;;;;;;;;;9.50;99.90;;;;;;7337648;19;113967;-73
2022/11/25 06:46:00;;;;;;;;;;;9.50;99.90;;;;;;7338214;19;108552;-73
2022/11/25 06:48:27;;;;;;;;;;;9.40;99.90;;;;;;7337316;19;109762;-73
2022/11/25 06:50:54;;;;;;;;;;;9.40;99.90;;;;;;7337453;19;109445;-73
2022/11/25 06:53:21;;;;;;;;;;;9.40;99.90;;;;;;7338636;19;108546;-73
2022/11/25 06:56:00;;;;;;;;;;;9.40;99.90;;;;;;7343081;19;108856;-73
2022/11/25 06:58:29;;;;;;;;;;;9.30;99.90;;;;;;7338168;19;108712;-74
2022/11/25 07:01:03;;;;;;;;;;;9.30;99.90;;;;;;7337112;19;110037;-73
2022/11/25 07:03:30;;;;;;;;;;;9.30;99.90;;;;;;7338711;19;110568;-73
2022/11/25 07:05:58;;;;;;;;;;;9.30;99.90;;;;;;7337305;19;109580;-73
2022/11/25 07:08:25;;;;;;;;;;;9.30;99.90;;;;;;7337495;19;108895;-73
2022/11/25 07:11:07;;;;;;;;;;;9.30;99.90;;;;;;7337059;19;111110;-73
2022/11/25 07:13:34;;;;;;;;;;;9.30;99.90;;;;;;7336011;19;108796;-73
2022/11/25 07:16:04;;;;;;;;;;;9.20;99.90;;;;;;7335869;19;109326;-73
2022/11/25 07:18:32;;;;;;;;;;;9.20;99.90;;;;;;7339527;19;109131;-73
2022/11/25 07:21:25;;;;;;;;;;;9.10;99.90;;;;;;7336765;19;109258;-73
2022/11/25 07:23:52;;;;;;;;;;;9.10;99.90;;;;;;7335327;19;112621;-73
2022/11/25 07:26:21;;;;;;;;;;;9.20;99.90;;;;;;7335998;19;110682;-73
2022/11/25 07:28:49;;;;;;;;;;;9.10;99.90;;;;;;7335218;19;108569;-73
2022/11/25 07:31:21;;;;;;;;;;;9.10;99.90;;;;;;7336002;19;109532;-74
2022/11/25 07:33:56;;;;;;;;;;;9.10;99.90;;;;;;7336682;19;109151;-73
2022/11/25 07:36:23;;;;;;;;;;;9.00;99.90;;;;;;7334630;19;108341;-73
2022/11/25 07:38:50;;;;;;;;;;;9.00;99.90;;;;;;7343218;19;110541;-73
2022/11/25 07:41:19;;;;;;;;;;;9.00;99.90;;;;;;7336823;19;109200;-73
2022/11/25 07:43:47;;;;;;;;;;;9.00;99.90;;;;;;7335594;19;110675;-73
2022/11/25 07:46:15;;;;;;;;;;;9.00;99.90;;;;;;7335393;19;108272;-73
2022/11/25 07:48:42;;;;;;;;;;;9.00;99.90;;;;;;7343049;19;110161;-73
2022/11/25 07:51:23;;;;;;;;;;;9.00;99.90;;;;;;7342756;19;109081;-74
2022/11/25 07:53:50;;;;;;;;;;;9.10;99.90;;;;;;7344325;19;109504;-73
2022/11/25 07:56:17;;;;;;;;;;;9.00;99.90;;;;;;7341124;19;109172;-73
2022/11/25 07:58:44;;;;;;;;;;;9.00;99.90;;;;;;7343374;19;110132;-73
2022/11/25 08:01:13;;;;;;;;;;;9.10;99.90;;;;;;7349345;19;109078;-73
2022/11/25 08:03:41;;;;;;;;;;;9.10;99.90;;;;;;7342995;19;110489;-73
2022/11/25 08:06:11;;;;;;;;;;;9.10;99.90;;;;;;7343986;19;109072;-75
2022/11/25 08:08:39;;;;;;;;;;;9.10;99.90;;;;;;7344545;19;108692;-72
2022/11/25 08:11:09;;;;;;;;;;;9.10;99.90;;;;;;7342331;19;109315;-72
2022/11/25 08:13:37;;;;;;;;;;;9.10;99.90;;;;;;7344670;19;109637;-73
2022/11/25 08:16:04;;;;;;;;;;;9.10;99.90;;;;;;7342555;19;110526;-73
2022/11/25 08:18:31;;;;;;;;;;;9.10;99.90;;;;;;7340084;19;110144;-73
2022/11/25 08:21:03;;;;;;;;;;;9.20;99.90;;;;;;7342731;19;109665;-73
2022/11/25 08:23:31;;;;;;;;;;;9.20;99.90;;;;;;7346620;19;109048;-73
2022/11/25 08:26:05;;;;;;;;;;;9.20;99.90;;;;;;7344550;19;108957;-73
2022/11/25 08:28:32;;;;;;;;;;;9.30;99.90;;;;;;7342076;19;109317;-73
2022/11/25 08:31:03;;;;;;;;;;;9.30;99.90;;;;;;7340728;19;111450;-73
2022/11/25 08:33:31;;;;;;;;;;;9.30;99.90;;;;;;7340920;19;108505;-73
2022/11/25 08:35:58;;;;;;;;;;;9.40;99.90;;;;;;7341731;19;109730;-74
2022/11/25 08:38:25;;;;;;;;;;;9.40;99.90;;;;;;7336172;19;112123;-73
2022/11/25 08:40:52;;;;;;;;;;;9.40;99.90;;;;;;7339985;19;109062;-73
2022/11/25 08:43:20;;;;;;;;;;;9.50;99.90;;;;;;7340993;19;109006;-73
2022/11/25 08:45:55;;;;;;;;;;;9.50;99.90;;;;;;7346093;19;110593;-73
2022/11/25 08:48:22;;;;;;;;;;;9.60;99.90;;;;;;7339831;19;109138;-73
2022/11/25 08:50:50;;;;;;;;;;;9.60;99.90;;;;;;7339141;19;109343;-73
2022/11/25 08:53:17;;;;;;;;;;;9.70;99.90;;;;;;7339691;19;113630;-73
2022/11/25 08:55:44;;;;;;;;;;;9.70;99.90;;;;;;7339287;19;109186;-72
2022/11/25 08:58:12;;;;;;;;;;;9.80;99.90;;;;;;7340667;19;109222;-73
2022/11/25 09:00:40;;;;;;;;;;;9.80;99.90;;;;;;7342446;19;109310;-72
2022/11/25 09:03:07;;;;;;;;;;;9.90;99.90;;;;;;7342436;19;109331;-73
2022/11/25 09:05:37;;;;;;;;;;;9.90;99.90;;;;;;7340268;19;110181;-73
2022/11/25 09:08:05;;;;;;;;;;;10.00;99.90;;;;;;7346545;19;109918;-73
2022/11/25 09:10:33;;;;;;;;;;;10.00;99.90;;;;;;7338172;19;109552;-73
2022/11/25 09:13:00;;;;;;;;;;;10.10;99.90;;;;;;7341775;19;109004;-72
2022/11/25 09:15:27;;;;;;;;;;;10.20;99.90;;;;;;7337761;19;110405;-73
2022/11/25 09:18:00;;;;;;;;;;;10.20;99.90;;;;;;7341812;19;110948;-73
2022/11/25 09:20:27;;;;;;;;;;;10.30;99.90;;;;;;7340172;19;108954;-73
2022/11/25 09:22:54;;;;;;;;;;;10.40;99.90;;;;;;7341682;19;109702;-73
2022/11/25 09:25:21;;;;;;;;;;;10.40;99.90;;;;;;7340381;19;109939;-73
2022/11/25 09:27:48;;;;;;;;;;;10.50;99.90;;;;;;7340901;19;108849;-73
2022/11/25 09:30:15;;;;;;;;;;;10.60;99.90;;;;;;7343574;19;110099;-73
2022/11/25 09:32:42;;;;;;;;;;;10.70;99.90;;;;;;7339652;19;109491;-73
2022/11/25 09:35:09;;;;;;;;;;;10.70;99.90;;;;;;7340122;19;108653;-73
2022/11/25 09:37:36;;;;;;;;;;;10.70;99.90;;;;;;7337964;19;110703;-73
2022/11/25 09:40:04;;;;;;;;;;;10.80;99.90;;;;;;7340630;19;108856;-73
2022/11/25 09:48:11;;;;;;;;;;;11.00;99.90;;;;;;7339697;19;108894;-73
2022/11/25 09:50:56;;;;;;;;;;;11.00;99.90;;;;;;7344295;19;109354;-73
2022/11/25 09:53:38;;;;;;;;;;;11.10;99.90;;;;;;7337743;19;109736;-73
2022/11/25 09:56:09;;;;;;;;;;;11.10;99.90;;;;;;7340102;19;109248;-73
2022/11/25 09:58:45;;;;;;;;;;;11.20;99.90;;;;;;7338960;19;110610;-73
2022/11/25 10:01:17;;;;;;;;;;;11.20;99.90;;;;;;7340604;19;109267;-72
2022/11/25 10:04:04;;;;;;;;;;;11.30;99.90;;;;;;7342123;19;109379;-72
2022/11/25 10:06:34;;;;;;;;;;;11.40;99.90;;;;;;7339647;19;110296;-72
2022/11/25 10:09:15;;;;;;;;;;;11.30;99.90;;;;;;7333780;19;108904;-72
2022/11/25 10:11:52;;;;;;;;;;;11.40;99.90;;;;;;7336775;19;111229;-76
2022/11/25 10:14:19;;;;;;;;;;;11.50;99.90;;;;;;7341877;19;110067;-72
2022/11/25 10:16:51;;;;;;;;;;;11.50;99.90;;;;;;7339204;19;111538;-72
2022/11/25 10:19:36;;;;;;;;;;;11.60;99.90;;;;;;7337018;19;110420;-72
2022/11/25 10:22:24;;;;;;;;;;;11.60;99.90;;;;;;7337094;19;108461;-72
2022/11/25 10:24:53;;;;;;;;;;;11.70;99.90;;;;;;7339171;19;109296;-73
2022/11/25 10:27:26;;;;;;;;;;;11.70;99.90;;;;;;7336772;19;109332;-73
2022/11/25 10:30:06;;;;;;;;;;;11.70;99.90;;;;;;7339000;19;110020;-72
2022/11/25 10:32:40;;;;;;;;;;;11.70;99.90;;;;;;7335765;19;108674;-72
2022/11/25 10:35:16;;;;;;;;;;;11.80;99.90;;;;;;7337221;19;109228;-72
2022/11/25 10:37:43;;;;;;;;;;;11.80;99.90;;;;;;7343712;19;109959;-72
2022/11/25 10:40:16;;;;;;;;;;;11.90;99.90;;;;;;7338160;19;109289;-72
2022/11/25 10:42:43;;;;;;;;;;;12.00;99.90;;;;;;7338588;19;109271;-72
2022/11/25 10:45:11;;;;;;;;;;;12.00;99.90;;;;;;7338520;19;109167;-72
2022/11/25 10:47:55;;;;;;;;;;;12.10;99.90;;;;;;7336991;19;110185;-72
2022/11/25 10:50:34;;;;;;;;;;;12.20;99.90;;;;;;7336618;19;108796;-72
2022/11/25 10:53:05;;;;;;;;;;;12.20;99.90;;;;;;7337016;19;109196;-72
2022/11/25 10:55:32;;;;;;;;;;;12.20;99.90;;;;;;7334907;19;110284;-72
2022/11/25 10:58:18;;;;;;;;;;;12.30;99.90;;;;;;7336542;19;108789;-72
2022/11/25 11:00:45;;;;;;;;;;;12.40;99.90;;;;;;7343536;19;109640;-72
2022/11/25 11:03:13;;;;;;;;;;;12.50;99.90;;;;;;7338512;19;109237;-72
2022/11/25 11:05:45;;;;;;;;;;;12.50;99.90;;;;;;7336969;19;109012;-79
2022/11/25 11:08:12;;;;;;;;;;;12.60;99.90;;;;;;7333631;19;110485;-79
2022/11/25 11:10:39;;;;;;;;;;;12.70;99.90;;;;;;7336612;19;109564;-77
2022/11/25 11:13:29;;;;;;;;;;;12.70;99.90;;;;;;7334599;19;109196;-78
2022/11/25 11:15:55;;;;;;;;;;;12.70;99.90;;;;;;7336932;19;109270;-76
2022/11/25 11:18:23;;;;;;;;;;;12.80;99.90;;;;;;7336762;19;110513;-79
2022/11/25 11:20:51;;;;;;;;;;;12.80;99.90;;;;;;7335972;19;109338;-75
2022/11/25 11:23:18;;;;;;;;;;;12.90;99.90;;;;;;7345877;19;110439;-77
2022/11/25 11:25:56;;;;;;;;;;;13.00;99.90;;;;;;7342804;19;108896;-76
2022/11/25 11:28:26;;;;;;;;;;;13.00;99.90;;;;;;7343539;19;110266;-79
2022/11/25 11:30:59;;;;;;;;;;;13.10;99.90;;;;;;7342289;19;108716;-73
2022/11/25 11:33:29;;;;;;;;;;;13.20;99.90;;;;;;7343130;19;109632;-73
2022/11/25 11:36:07;;;;;;;;;;;13.20;99.90;;;;;;7342942;19;109033;-72
2022/11/25 11:38:37;;;;;;;;;;;13.30;99.90;;;;;;7343386;19;108778;-72
2022/11/25 11:41:20;;;;;;;;;;;13.40;99.90;;;;;;7343096;19;109529;-72
2022/11/25 11:44:06;;;;;;;;;;;13.40;99.90;;;;;;7342852;19;111105;-72
2022/11/25 11:46:45;;;;;;;;;;;13.40;99.90;;;;;;7348663;19;108672;-72
2022/11/25 11:49:18;;;;;;;;;;;13.40;99.90;;;;;;7343729;19;110108;-72
2022/11/25 11:51:45;;;;;;;;;;;13.50;99.90;;;;;;7343699;19;108440;-72
2022/11/25 11:54:15;;;;;;;;;;;13.60;99.90;;;;;;7343533;19;108216;-72
2022/11/25 11:56:42;;;;;;;;;;;13.60;99.90;;;;;;7339850;19;110176;-69
2022/11/25 11:59:19;;;;;;;;;;;13.60;99.90;;;;;;7341990;19;108496;-68
2022/11/25 12:01:45;;;;;;;;;;;13.60;99.90;;;;;;7342579;19;110431;-69
2022/11/25 12:04:21;;;;;;;;;;;13.60;99.90;;;;;;7342453;19;110134;-68
2022/11/25 12:07:07;;;;;;;;;;;13.60;99.90;;;;;;7346520;19;108333;-68
2022/11/25 12:09:37;;;;;;;;;;;13.60;99.90;;;;;;7337765;19;111225;-68
2022/11/25 12:12:05;;;;;;;;;;;13.60;99.90;;;;;;7339100;19;108807;-68
2022/11/25 12:14:42;;;;;;;;;;;13.70;99.90;;;;;;7338111;19;108723;-68
2022/11/25 12:17:16;;;;;;;;;;;13.70;99.90;;;;;;7337384;19;110541;-69
2022/11/25 12:19:53;;;;;;;;;;;13.70;99.90;;;;;;7337650;19;108652;-68
2022/11/25 12:22:28;;;;;;;;;;;13.80;99.90;;;;;;7336557;19;109682;-68
2022/11/25 12:25:00;;;;;;;;;;;13.80;99.90;;;;;;7338736;19;110322;-68
2022/11/25 12:27:48;;;;;;;;;;;13.90;99.90;;;;;;7339986;19;108563;-69
2022/11/25 12:30:17;;;;;;;;;;;13.90;99.90;;;;;;7348600;19;108860;-68
2022/11/25 12:32:49;;;;;;;;;;;14.00;99.90;;;;;;7342169;19;109791;-68
2022/11/25 12:35:28;;;;;;;;;;;14.00;99.90;;;;;;7341168;19;109083;-68
2022/11/25 12:38:01;;;;;;;;;;;14.00;99.90;;;;;;7342025;19;110456;-68
2022/11/25 12:40:27;;;;;;;;;;;14.10;99.90;;;;;;7342588;19;108804;-70
2022/11/25 12:42:58;;;;;;;;;;;14.10;99.90;;;;;;7343926;19;109462;-68
2022/11/25 12:45:25;;;;;;;;;;;14.00;99.90;;;;;;7341089;19;113223;-69
2022/11/25 12:47:52;;;;;;;;;;;14.10;99.90;;;;;;7339799;19;108934;-69
2022/11/25 12:50:42;;;;;;;;;;;14.10;99.90;;;;;;7340812;19;109441;-68
2022/11/25 12:53:16;;;;;;;;;;;14.10;99.90;;;;;;7347368;19;110379;-68
2022/11/25 12:55:43;;;;;;;;;;;14.20;99.90;;;;;;7343332;19;109112;-68
2022/11/25 12:58:19;;;;;;;;;;;14.20;99.90;;;;;;7342059;19;110258;-68
2022/11/25 13:00:59;;;;;;;;;;;14.30;99.90;;;;;;7341777;19;108438;-68
2022/11/25 13:03:38;;;;;;;;;;;14.40;99.90;;;;;;7338819;19;109105;-68
2022/11/25 13:06:09;;;;;;;;;;;14.40;99.90;;;;;;7340491;19;110683;-68
2022/11/25 13:08:48;;;;;;;;;;;14.50;99.90;;;;;;7342120;19;108866;-68
2022/11/25 13:11:28;;;;;;;;;;;14.50;99.90;;;;;;7340644;19;109131;-68
2022/11/25 13:13:56;;;;;;;;;;;14.60;99.90;;;;;;7343370;19;109388;-69
2022/11/25 13:16:24;;;;;;;;;;;14.60;99.90;;;;;;7344596;19;108678;-68
2022/11/25 13:18:53;;;;;;;;;;;14.70;99.90;;;;;;7340847;19;113266;-68
2022/11/25 13:21:22;;;;;;;;;;;14.70;99.90;;;;;;7339957;19;108991;-68
2022/11/25 13:23:57;;;;;;;;;;;14.60;99.90;;;;;;7339564;19;108258;-68
2022/11/25 13:26:34;;;;;;;;;;;14.70;99.90;;;;;;7339621;19;109143;-68
2022/11/25 13:29:11;;;;;;;;;;;14.80;99.90;;;;;;7341564;19;108662;-68
2022/11/25 13:31:55;;;;;;;;;;;14.80;99.90;;;;;;7340708;19;109476;-68
2022/11/25 13:34:25;;;;;;;;;;;14.80;99.90;;;;;;7338866;19;110505;-68
2022/11/25 13:36:59;;;;;;;;;;;14.80;99.90;;;;;;7340576;19;109359;-68
2022/11/25 13:39:33;;;;;;;;;;;14.80;99.90;;;;;;7344036;19;108462;-68
2022/11/25 13:42:02;;;;;;;;;;;14.60;99.90;;;;;;7340437;19;108462;-68
2022/11/25 13:44:34;;;;;;;;;;;14.60;99.90;;;;;;7339257;19;109040;-68
2022/11/25 13:47:22;;;;;;;;;;;14.50;99.90;;;;;;7338176;19;110253;-68
2022/11/25 13:49:49;;;;;;;;;;;14.50;99.90;;;;;;7340934;19;108323;-68
2022/11/25 13:52:34;;;;;;;;;;;14.50;99.90;;;;;;7339749;19;108619;-68
2022/11/25 13:55:07;;;;;;;;;;;14.40;99.90;;;;;;7338779;19;110152;-68
2022/11/25 13:57:36;;;;;;;;;;;14.40;99.90;;;;;;7339538;19;108651;-69
2022/11/25 14:00:09;;;;;;;;;;;14.40;99.90;;;;;;7346096;19;109282;-68
2022/11/25 14:02:40;;;;;;;;;;;14.30;99.90;;;;;;7339883;19;108920;-68
2022/11/25 14:05:26;;;;;;;;;;;14.30;99.90;;;;;;7340911;19;109200;-68
2022/11/25 14:07:56;;;;;;;;;;;14.30;99.90;;;;;;7340667;19;109659;-68
2022/11/25 14:10:32;;;;;;;;;;;14.30;99.90;;;;;;7337295;19;109486;-68
2022/11/25 14:13:04;;;;;;;;;;;14.30;99.90;;;;;;7341228;19;108967;-68
2022/11/25 14:15:40;;;;;;;;;;;14.40;99.90;;;;;;7338103;19;110295;-68
2022/11/25 14:18:17;;;;;;;;;;;14.40;99.90;;;;;;7340412;19;108346;-68
2022/11/25 14:20:43;;;;;;;;;;;14.30;99.90;;;;;;7340002;19;109449;-68
2022/11/25 14:23:13;;;;;;;;;;;14.30;99.90;;;;;;7344049;19;110111;-68
2022/11/25 14:25:54;;;;;;;;;;;14.30;99.90;;;;;;7339912;19;109482;-68
2022/11/25 14:28:33;;;;;;;;;;;14.30;99.90;;;;;;7336846;19;109936;-68
2022/11/25 14:31:05;;;;;;;;;;;14.20;99.90;;;;;;7337578;19;109183;-68
2022/11/25 14:33:35;;;;;;;;;;;14.20;99.90;;;;;;7334287;19;109850;-68
2022/11/25 14:36:05;;;;;;;;;;;14.10;99.90;;;;;;7337394;19;111159;-68